Time;durP1;ratioP1;P1;durP2;ratioP2;P2;SDS_P1;SDS_P2;PMS_P1;PMS_P2;Temp;Humidity;BMP_temperature;BMP_pressure;BME280_temperature;BME280_humidity;BME280_pressure;Samples;Min_cycle;Max_cycle;Signal;HPM_P1;HPM_P2
2022/08/19 00:01:37;;;;;;;13.93;12.63;;;22.70;96.70;;;;;;5012935;28;20462;-58
2022/08/19 00:04:06;;;;;;;14.73;13.43;;;22.60;96.70;;;;;;5007925;28;20445;-59
2022/08/19 00:06:33;;;;;;;15.30;13.90;;;22.60;96.90;;;;;;5012908;28;20818;-58
2022/08/19 00:09:02;;;;;;;14.97;13.50;;;22.60;97.00;;;;;;5011690;28;20508;-58
2022/08/19 00:11:28;;;;;;;14.40;13.10;;;22.60;96.80;;;;;;5013045;28;20939;-58
2022/08/19 00:13:56;;;;;;;13.93;12.63;;;22.40;97.00;;;;;;5008870;28;20439;-58
2022/08/19 00:16:22;;;;;;;14.43;13.13;;;22.00;97.10;;;;;;5005564;28;20448;-60
2022/08/19 00:18:48;;;;;;;14.80;13.30;;;22.40;97.30;;;;;;5011630;28;20486;-57
2022/08/19 00:21:14;;;;;;;13.90;12.67;;;22.50;97.30;;;;;;5008060;28;20934;-57
2022/08/19 00:23:40;;;;;;;14.33;13.07;;;22.40;97.70;;;;;;5010467;28;20190;-57
2022/08/19 00:26:07;;;;;;;14.23;12.93;;;22.40;97.40;;;;;;5011226;28;20457;-59
2022/08/19 00:28:35;;;;;;;14.13;12.67;;;22.50;97.30;;;;;;5011782;28;20445;-59
2022/08/19 00:31:01;;;;;;;13.35;12.15;;;22.50;97.20;;;;;;5005832;28;20491;-59
2022/08/19 00:33:27;;;;;;;13.43;12.20;;;22.60;97.30;;;;;;5012132;28;20179;-59
2022/08/19 00:35:54;;;;;;;13.83;12.60;;;22.60;97.20;;;;;;5007549;28;20575;-59
2022/08/19 00:38:22;;;;;;;15.13;13.73;;;22.50;97.10;;;;;;5010478;28;20210;-60
2022/08/19 00:40:47;;;;;;;14.23;12.93;;;22.50;97.20;;;;;;5010467;28;20491;-60
2022/08/19 00:43:20;;;;;;;15.00;13.60;;;22.40;97.30;;;;;;5010780;28;20938;-59
2022/08/19 00:45:45;;;;;;;14.43;13.03;;;22.50;97.40;;;;;;5009510;28;20313;-59
2022/08/19 00:48:11;;;;;;;14.30;13.00;;;22.40;97.30;;;;;;5006858;28;20656;-59
2022/08/19 00:50:40;;;;;;;14.70;13.40;;;22.40;97.40;;;;;;5012516;28;20188;-59
2022/08/19 00:53:06;;;;;;;14.47;13.13;;;22.30;97.60;;;;;;5002663;28;20194;-57
2022/08/19 00:55:33;;;;;;;14.10;12.80;;;22.20;97.80;;;;;;5008188;28;20948;-59
2022/08/19 00:58:06;;;;;;;15.73;13.95;;;22.20;97.90;;;;;;5009995;28;20436;-59
2022/08/19 01:00:35;;;;;;;14.43;12.93;;;22.30;98.00;;;;;;5005461;28;20574;-59
2022/08/19 01:03:00;;;;;;;14.70;13.23;;;22.30;98.40;;;;;;5011021;28;20217;-59
2022/08/19 01:05:28;;;;;;;15.63;13.73;;;22.30;98.00;;;;;;5009277;28;20470;-59
2022/08/19 01:07:56;;;;;;;13.70;12.40;;;22.40;97.90;;;;;;5008491;28;20294;-59
2022/08/19 01:10:26;;;;;;;13.90;12.60;;;22.30;97.90;;;;;;5010661;28;20454;-59
2022/08/19 01:12:54;;;;;;;14.83;13.43;;;22.30;97.80;;;;;;5010753;28;20441;-59
2022/08/19 01:15:23;;;;;;;15.10;13.63;;;22.30;97.90;;;;;;5011627;28;20433;-59
2022/08/19 01:17:50;;;;;;;15.60;14.20;;;22.20;98.00;;;;;;5007726;28;20446;-59
2022/08/19 01:20:19;;;;;;;14.52;13.23;;;22.20;98.20;;;;;;5009909;28;21191;-58
2022/08/19 01:22:52;;;;;;;14.80;13.40;;;22.30;98.00;;;;;;5003764;28;20218;-59
2022/08/19 01:25:21;;;;;;;15.73;14.27;;;22.40;97.90;;;;;;5008152;28;20481;-59
2022/08/19 01:27:49;;;;;;;13.57;12.33;;;22.30;97.90;;;;;;5004179;28;20430;-59
2022/08/19 01:30:20;;;;;;;15.60;14.00;;;22.50;97.90;;;;;;5012872;28;20425;-59
2022/08/19 01:32:46;;;;;;;15.33;13.73;;;22.30;97.90;;;;;;5010209;28;20449;-59
2022/08/19 01:35:13;;;;;;;14.70;13.40;;;22.50;97.90;;;;;;5007760;28;20816;-59
2022/08/19 01:37:49;;;;;;;14.67;13.30;;;22.40;97.80;;;;;;5008952;28;20182;-59
2022/08/19 01:40:16;;;;;;;15.07;13.67;;;22.50;97.90;;;;;;5009426;28;20941;-59
2022/08/19 01:42:42;;;;;;;15.80;14.20;;;22.50;97.70;;;;;;5010668;28;20437;-58
2022/08/19 01:45:08;;;;;;;15.00;13.70;;;22.50;97.70;;;;;;5009525;28;20477;-59
2022/08/19 01:47:37;;;;;;;16.20;13.90;;;22.50;97.70;;;;;;5012051;28;20179;-59
2022/08/19 01:50:05;;;;;;;14.97;13.67;;;22.50;97.90;;;;;;5008036;28;21176;-59
2022/08/19 01:52:30;;;;;;;15.17;13.87;;;22.50;97.80;;;;;;5009726;28;20977;-59
2022/08/19 01:54:56;;;;;;;17.73;15.93;;;22.40;98.00;;;;;;5010424;28;20485;-59
2022/08/19 01:57:22;;;;;;;15.63;14.23;;;22.40;98.20;;;;;;5010051;28;20194;-58
2022/08/19 01:59:47;;;;;;;14.40;13.03;;;22.30;98.10;;;;;;5009755;28;20293;-58
2022/08/19 02:02:13;;;;;;;17.93;16.27;;;22.40;98.20;;;;;;5008777;28;20213;-59
2022/08/19 02:04:39;;;;;;;15.53;14.10;;;22.30;98.30;;;;;;5009970;28;20191;-59
2022/08/19 02:07:06;;;;;;;15.93;14.53;;;22.30;98.40;;;;;;5009934;28;20614;-59
2022/08/19 02:09:32;;;;;;;15.97;14.57;;;22.30;98.20;;;;;;5009673;28;20202;-59
2022/08/19 02:11:58;;;;;;;17.00;15.40;;;22.20;98.50;;;;;;5010464;28;20537;-58
2022/08/19 02:14:24;;;;;;;15.57;14.07;;;22.20;98.60;;;;;;5010401;28;20521;-59
2022/08/19 02:16:49;;;;;;;15.33;14.00;;;22.20;98.70;;;;;;5008202;28;21015;-59
2022/08/19 02:19:15;;;;;;;16.07;14.43;;;22.20;98.70;;;;;;5006467;28;20908;-59
2022/08/19 02:21:41;;;;;;;16.80;15.30;;;22.50;98.90;;;;;;5009803;28;20218;-60
2022/08/19 02:24:06;;;;;;;15.60;14.17;;;22.20;98.80;;;;;;5010041;28;20271;-59
2022/08/19 02:26:33;;;;;;;16.63;15.10;;;22.10;98.90;;;;;;5010415;28;20975;-59
2022/08/19 02:29:00;;;;;;;17.07;15.30;;;22.20;98.90;;;;;;5009760;28;20466;-59
2022/08/19 02:31:27;;;;;;;16.97;15.37;;;22.20;98.90;;;;;;5007431;28;20437;-59
2022/08/19 02:33:53;;;;;;;16.53;15.03;;;22.20;98.90;;;;;;5009929;28;20433;-59
2022/08/19 02:36:19;;;;;;;16.50;14.90;;;22.20;99.00;;;;;;5009678;28;20453;-59
2022/08/19 02:38:45;;;;;;;16.23;14.60;;;22.10;99.20;;;;;;5008094;28;20215;-59
2022/08/19 02:41:17;;;;;;;17.20;15.40;;;22.10;99.20;;;;;;5009352;28;20434;-59
2022/08/19 02:43:43;;;;;;;16.05;14.55;;;22.10;99.30;;;;;;5007657;28;20942;-59
2022/08/19 02:46:24;;;;;;;17.50;16.00;;;22.10;99.40;;;;;;5012581;28;20218;-59
2022/08/19 02:48:52;;;;;;;17.50;15.70;;;22.10;99.40;;;;;;5008876;28;20290;-60
2022/08/19 02:51:23;;;;;;;16.50;14.80;;;22.10;99.50;;;;;;5011002;28;20441;-59
2022/08/19 02:53:49;;;;;;;16.33;14.73;;;22.00;99.50;;;;;;5008324;28;20494;-59
2022/08/19 02:56:15;;;;;;;18.27;16.50;;;22.10;99.50;;;;;;5007866;28;20433;-58
2022/08/19 02:58:41;;;;;;;17.10;15.43;;;22.10;99.50;;;;;;5011351;28;20620;-59
2022/08/19 03:01:07;;;;;;;19.90;18.08;;;22.00;99.70;;;;;;5011172;28;20182;-60
2022/08/19 03:03:33;;;;;;;18.93;17.23;;;22.00;99.70;;;;;;5013832;28;20193;-59
2022/08/19 03:06:25;;;;;;;19.03;17.23;;;22.00;99.80;;;;;;5012264;28;20288;-58
2022/08/19 03:08:52;;;;;;;19.90;18.02;;;22.00;99.90;;;;;;5010691;28;20457;-58
2022/08/19 03:11:23;;;;;;;20.55;18.52;;;21.90;99.90;;;;;;5013994;28;20207;-58
2022/08/19 03:13:50;;;;;;;19.70;17.57;;;22.00;99.90;;;;;;5009160;28;20641;-57
2022/08/19 03:16:20;;;;;;;18.75;17.05;;;21.70;99.90;;;;;;5012482;28;20437;-57
2022/08/19 03:18:46;;;;;;;20.05;18.08;;;21.70;99.90;;;;;;5011006;28;20222;-57
2022/08/19 03:21:21;;;;;;;19.23;17.33;;;21.70;99.90;;;;;;5012049;28;20198;-57
2022/08/19 03:23:47;;;;;;;22.52;20.27;;;21.70;99.90;;;;;;5006442;28;20198;-59
2022/08/19 03:26:14;;;;;;;21.43;19.33;;;21.70;99.90;;;;;;5013226;28;20215;-57
2022/08/19 03:28:41;;;;;;;20.83;18.83;;;21.70;99.90;;;;;;5012394;28;20208;-57
2022/08/19 03:31:13;;;;;;;22.25;20.15;;;21.60;99.90;;;;;;5010347;28;20179;-57
2022/08/19 03:33:40;;;;;;;19.85;17.75;;;21.50;99.90;;;;;;5012706;28;20583;-56
2022/08/19 03:36:08;;;;;;;20.77;18.88;;;21.60;99.90;;;;;;5011562;28;20191;-58
2022/08/19 03:38:36;;;;;;;22.23;19.98;;;21.60;99.90;;;;;;5010037;28;20249;-57
2022/08/19 03:41:06;;;;;;;21.05;19.02;;;21.50;99.90;;;;;;5010044;28;20251;-57
2022/08/19 03:43:33;;;;;;;20.03;18.13;;;21.50;99.90;;;;;;5013121;28;20537;-57
2022/08/19 03:46:10;;;;;;;19.98;17.98;;;21.50;99.90;;;;;;5013926;28;20467;-57
2022/08/19 03:48:37;;;;;;;21.13;19.08;;;21.50;99.90;;;;;;5004777;28;20199;-57
2022/08/19 03:51:03;;;;;;;21.15;19.25;;;21.50;99.90;;;;;;5012970;28;20183;-57
2022/08/19 03:53:30;;;;;;;20.95;18.67;;;21.50;99.90;;;;;;5009245;28;20183;-57
2022/08/19 03:55:57;;;;;;;22.30;20.10;;;21.50;99.90;;;;;;5012603;28;20191;-58
2022/08/19 03:58:23;;;;;;;22.38;20.25;;;21.50;99.90;;;;;;5012277;28;20286;-57
2022/08/19 04:00:49;;;;;;;21.50;19.37;;;21.30;99.90;;;;;;5008554;28;20920;-58
2022/08/19 04:03:15;;;;;;;23.50;21.10;;;21.30;99.90;;;;;;5012197;28;20600;-57
2022/08/19 04:05:41;;;;;;;23.10;20.75;;;21.40;99.90;;;;;;5012557;28;20203;-59
2022/08/19 04:08:06;;;;;;;21.30;19.30;;;21.40;99.90;;;;;;5006966;28;20268;-58
2022/08/19 04:10:40;;;;;;;22.50;20.20;;;21.50;99.90;;;;;;5012241;28;20198;-58
2022/08/19 04:13:06;;;;;;;22.90;20.70;;;21.40;99.90;;;;;;5006061;28;20268;-57
2022/08/19 04:15:38;;;;;;;22.60;20.20;;;21.30;99.90;;;;;;5013503;28;20270;-58
2022/08/19 04:18:05;;;;;;;22.50;20.30;;;21.40;99.90;;;;;;5010139;28;20221;-57
2022/08/19 04:20:31;;;;;;;22.85;20.65;;;21.40;99.90;;;;;;5010224;28;20664;-57
2022/08/19 04:22:57;;;;;;;24.73;22.20;;;21.30;99.90;;;;;;5010907;28;20239;-58
2022/08/19 04:25:23;;;;;;;23.47;21.13;;;21.30;99.90;;;;;;5010995;28;20207;-57
2022/08/19 04:27:48;;;;;;;24.60;22.27;;;21.40;99.90;;;;;;5011513;28;20186;-58
2022/08/19 04:30:14;;;;;;;23.00;20.70;;;21.70;99.90;;;;;;5014172;28;20656;-57
2022/08/19 04:32:40;;;;;;;22.60;20.30;;;21.30;99.90;;;;;;5012929;28;20476;-57
2022/08/19 04:35:06;;;;;;;22.85;20.65;;;21.20;99.90;;;;;;5008110;28;20481;-57
2022/08/19 04:37:33;;;;;;;23.27;20.73;;;21.30;99.90;;;;;;5010088;28;20187;-57
2022/08/19 04:42:44;;;;;;;23.42;20.95;;;21.30;99.90;;;;;;5011605;28;20286;-58
2022/08/19 04:45:13;;;;;;;23.00;20.80;;;21.30;99.90;;;;;;5010767;28;20293;-58
2022/08/19 04:47:40;;;;;;;25.08;22.58;;;21.20;99.90;;;;;;5007355;28;20947;-57
2022/08/19 04:50:07;;;;;;;25.52;21.73;;;21.30;99.90;;;;;;5007714;28;20198;-57
2022/08/19 04:52:33;;;;;;;25.80;23.30;;;21.40;99.90;;;;;;5005416;28;20435;-58
2022/08/19 04:55:00;;;;;;;22.38;20.13;;;21.50;99.90;;;;;;5010731;28;20185;-60
2022/08/19 04:57:26;;;;;;;22.88;20.67;;;21.60;99.90;;;;;;5005738;28;20198;-60
2022/08/19 04:59:56;;;;;;;23.00;20.73;;;21.60;99.90;;;;;;5010900;28;20691;-60
2022/08/19 05:02:24;;;;;;;24.30;21.80;;;21.60;99.90;;;;;;5004008;28;20203;-60
2022/08/19 05:04:50;;;;;;;24.27;21.80;;;21.60;99.90;;;;;;5009834;28;20206;-60
2022/08/19 05:07:15;;;;;;;23.57;21.30;;;21.50;99.90;;;;;;5006617;28;20187;-61
2022/08/19 05:09:42;;;;;;;22.07;19.97;;;21.40;99.90;;;;;;5007761;28;20522;-61
2022/08/19 05:12:08;;;;;;;24.48;22.02;;;21.40;99.90;;;;;;5005850;28;20938;-60
2022/08/19 05:14:33;;;;;;;22.57;20.37;;;21.50;99.90;;;;;;5010664;28;20194;-61
2022/08/19 05:17:00;;;;;;;22.53;20.30;;;21.50;99.90;;;;;;5009031;28;20453;-63
2022/08/19 05:24:54;;;;;;;23.38;21.08;;;21.50;99.90;;;;;;5009466;28;20217;-61
2022/08/19 05:27:20;;;;;;;23.55;21.27;;;21.40;99.90;;;;;;5008319;28;20931;-60
2022/08/19 05:29:46;;;;;;;23.53;21.07;;;21.50;99.90;;;;;;5010385;28;20202;-61
2022/08/19 05:32:11;;;;;;;23.47;21.17;;;21.50;99.90;;;;;;5006828;28;20216;-62
2022/08/19 05:34:37;;;;;;;23.37;21.03;;;21.50;99.90;;;;;;5006182;28;20191;-60
2022/08/19 05:37:04;;;;;;;24.90;22.30;;;21.50;99.90;;;;;;5006651;28;20180;-62
2022/08/19 05:39:33;;;;;;;22.30;20.10;;;21.40;99.90;;;;;;5007932;28;20207;-62
2022/08/19 05:42:03;;;;;;;23.33;21.08;;;21.50;99.90;;;;;;5009688;28;20175;-62
2022/08/19 05:44:33;;;;;;;23.38;21.05;;;21.00;99.90;;;;;;5009782;28;20190;-62
2022/08/19 05:47:00;;;;;;;24.15;21.88;;;21.60;99.90;;;;;;5006571;28;20254;-62
2022/08/19 05:49:26;;;;;;;24.10;21.90;;;21.50;99.90;;;;;;5009092;28;20198;-60
2022/08/19 05:51:52;;;;;;;24.30;22.00;;;21.60;99.90;;;;;;5008392;28;20614;-61
2022/08/19 05:54:19;;;;;;;23.97;21.57;;;21.50;99.90;;;;;;5008283;28;20245;-62
2022/08/19 05:56:47;;;;;;;24.05;21.65;;;21.60;99.90;;;;;;5010939;28;20804;-63
2022/08/19 05:59:14;;;;;;;22.98;20.98;;;21.60;99.90;;;;;;5005625;28;20210;-63
2022/08/19 06:01:42;;;;;;;23.75;21.45;;;21.50;99.90;;;;;;5002336;28;20203;-61
2022/08/19 06:04:08;;;;;;;23.77;21.40;;;21.60;99.90;;;;;;5000781;28;20217;-62
2022/08/19 06:06:35;;;;;;;24.70;22.30;;;21.70;99.90;;;;;;5001463;28;20212;-62
2022/08/19 06:09:05;;;;;;;21.93;20.00;;;21.60;99.90;;;;;;5007471;28;22913;-61
2022/08/19 06:11:44;;;;;;;23.35;21.10;;;21.60;99.90;;;;;;5006779;28;20442;-61
2022/08/19 06:14:18;;;;;;;22.48;20.15;;;21.70;99.90;;;;;;5011045;28;20559;-61
2022/08/19 06:16:44;;;;;;;21.83;19.77;;;21.70;99.90;;;;;;5007849;28;20269;-64
2022/08/19 06:19:17;;;;;;;24.25;18.35;;;21.70;99.90;;;;;;5008568;28;20290;-58
2022/08/19 06:21:46;;;;;;;23.73;20.73;;;21.80;99.90;;;;;;5009864;28;20193;-54
2022/08/19 06:24:14;;;;;;;18.85;17.00;;;21.80;99.90;;;;;;5003906;28;20203;-55
2022/08/19 06:26:43;;;;;;;23.07;20.67;;;21.80;99.90;;;;;;4999155;28;20211;-56
2022/08/19 06:29:11;;;;;;;19.00;17.00;;;21.80;99.90;;;;;;5004771;28;20461;-59
2022/08/19 06:31:40;;;;;;;22.73;20.48;;;21.90;99.90;;;;;;5015160;28;22382;-50
2022/08/19 06:34:06;;;;;;;19.30;17.30;;;22.00;99.90;;;;;;5015700;28;20187;-53
2022/08/19 06:36:46;;;;;;;18.03;16.23;;;22.10;99.90;;;;;;5016685;28;20195;-53
2022/08/19 06:39:18;;;;;;;24.45;20.40;;;22.10;99.90;;;;;;5013747;28;20218;-54
2022/08/19 06:41:46;;;;;;;24.03;21.33;;;22.30;99.90;;;;;;5014151;28;20187;-54
2022/08/19 06:44:12;;;;;;;18.38;16.58;;;22.20;99.90;;;;;;5010937;28;20781;-54
2022/08/19 06:46:40;;;;;;;23.80;21.60;;;22.40;99.90;;;;;;5013543;28;20214;-51
2022/08/19 06:49:08;;;;;;;22.80;20.53;;;22.30;99.90;;;;;;5014598;28;20599;-56
2022/08/19 06:51:34;;;;;;;25.13;22.73;;;22.30;99.90;;;;;;5015104;28;20441;-55
2022/08/19 06:54:01;;;;;;;26.40;23.70;;;22.50;99.90;;;;;;5012858;28;20442;-57
2022/08/19 06:56:36;;;;;;;25.77;23.17;;;22.60;99.90;;;;;;5015605;28;20210;-51
2022/08/19 06:59:11;;;;;;;22.13;20.02;;;22.50;99.90;;;;;;5013039;28;20464;-52
2022/08/19 07:01:39;;;;;;;19.20;17.20;;;22.50;99.90;;;;;;5014138;28;20691;-54
2022/08/19 07:04:06;;;;;;;22.30;20.10;;;22.20;99.90;;;;;;5015655;28;20444;-55
2022/08/19 07:06:32;;;;;;;23.37;20.97;;;22.30;99.90;;;;;;5017247;28;20476;-54
2022/08/19 07:08:58;;;;;;;17.53;15.93;;;22.30;99.90;;;;;;5009062;28;20547;-53
2022/08/19 07:11:24;;;;;;;22.70;20.40;;;22.30;99.90;;;;;;5014386;28;20255;-57
2022/08/19 07:13:49;;;;;;;21.00;18.90;;;22.10;99.90;;;;;;5018636;28;20229;-56
2022/08/19 07:16:19;;;;;;;22.40;20.30;;;22.10;99.90;;;;;;5015312;28;20445;-55
2022/08/19 07:18:46;;;;;;;22.57;20.27;;;22.10;99.90;;;;;;5018796;28;20292;-52
2022/08/19 07:21:16;;;;;;;21.20;19.00;;;22.10;99.90;;;;;;5013062;28;20898;-56
2022/08/19 07:23:44;;;;;;;18.00;16.40;;;22.10;99.90;;;;;;5013180;28;20278;-57
2022/08/19 07:26:13;;;;;;;21.77;19.77;;;22.20;99.90;;;;;;5010215;28;20472;-57
2022/08/19 07:28:39;;;;;;;22.60;20.50;;;22.30;99.90;;;;;;5015163;28;20512;-55
2022/08/19 07:31:10;;;;;;;21.85;19.75;;;22.20;99.90;;;;;;5014962;28;20437;-57
2022/08/19 07:33:36;;;;;;;21.30;19.30;;;22.00;99.90;;;;;;5014837;28;20179;-53
2022/08/19 07:36:07;;;;;;;19.23;17.37;;;22.10;99.90;;;;;;5014269;28;20191;-54
2022/08/19 07:38:34;;;;;;;23.43;21.03;;;22.30;99.90;;;;;;5012180;28;20456;-57
2022/08/19 07:41:00;;;;;;;20.33;18.37;;;22.30;99.90;;;;;;5013791;28;20456;-56
2022/08/19 07:43:27;;;;;;;23.97;21.50;;;22.40;99.90;;;;;;5011775;28;20525;-59
2022/08/19 07:45:56;;;;;;;23.30;20.98;;;22.40;99.90;;;;;;5012047;28;20583;-60
2022/08/19 07:48:26;;;;;;;22.10;19.97;;;22.10;99.90;;;;;;5010765;28;20206;-59
2022/08/19 07:50:54;;;;;;;23.83;21.42;;;21.90;99.90;;;;;;5008294;28;20441;-58
2022/08/19 07:53:20;;;;;;;21.85;19.75;;;21.60;99.90;;;;;;5005645;28;20175;-60
2022/08/19 07:55:46;;;;;;;25.10;20.57;;;21.70;99.90;;;;;;5010932;28;20205;-62
2022/08/19 07:58:15;;;;;;;22.10;19.93;;;21.70;99.90;;;;;;4999731;28;20458;-59
2022/08/19 08:00:42;;;;;;;22.27;19.47;;;21.50;99.90;;;;;;5010835;28;20837;-60
2022/08/19 08:03:08;;;;;;;22.00;19.35;;;21.60;99.90;;;;;;5006257;28;20466;-67
2022/08/19 08:09:10;;;;;;;22.40;20.30;;;21.50;99.90;;;;;;5006538;28;20209;-67
2022/08/19 08:11:08;;;;;;;21.60;19.40;;;21.50;99.90;;;;;;4997978;28;20431;-64
2022/08/19 08:13:37;;;;;;;20.98;18.92;;;21.40;99.90;;;;;;5009051;28;20559;-66
2022/08/19 08:16:03;;;;;;;20.60;18.63;;;21.50;99.90;;;;;;5006912;28;20190;-65
2022/08/19 08:18:29;;;;;;;20.40;18.48;;;21.50;99.90;;;;;;5006928;28;20568;-67
2022/08/19 08:20:56;;;;;;;21.90;19.60;;;21.60;99.90;;;;;;5010024;28;20334;-61
2022/08/19 08:23:24;;;;;;;22.25;19.95;;;21.50;99.90;;;;;;5007752;28;20450;-60
2022/08/19 08:25:51;;;;;;;20.65;18.60;;;21.40;99.90;;;;;;5005319;28;20229;-61
2022/08/19 08:28:18;;;;;;;22.95;19.00;;;21.30;99.90;;;;;;5010146;28;20586;-62
2022/08/19 08:30:45;;;;;;;19.45;17.58;;;21.40;99.90;;;;;;5006916;28;20180;-61
2022/08/19 08:33:11;;;;;;;21.35;19.27;;;21.40;99.90;;;;;;5010558;28;20189;-62
2022/08/19 08:35:37;;;;;;;22.00;19.80;;;21.50;99.90;;;;;;5004462;28;20230;-61
2022/08/19 08:38:04;;;;;;;23.03;20.67;;;21.50;99.90;;;;;;5008437;28;20472;-65
2022/08/19 08:40:48;;;;;;;21.25;19.10;;;21.50;99.90;;;;;;5009624;28;20265;-67
2022/08/19 08:43:35;;;;;;;23.88;21.30;;;21.40;99.90;;;;;;5009799;28;20202;-65
2022/08/19 08:46:09;;;;;;;22.50;20.20;;;21.50;99.90;;;;;;5007200;28;20211;-68
2022/08/19 08:48:49;;;;;;;20.52;18.52;;;21.20;99.90;;;;;;5013150;28;20218;-67
2022/08/19 08:51:22;;;;;;;21.23;19.23;;;21.10;99.90;;;;;;5007626;28;20183;-61
2022/08/19 08:53:51;;;;;;;21.55;19.55;;;21.10;99.90;;;;;;5010426;28;20187;-68
2022/08/19 08:56:16;;;;;;;22.13;19.90;;;21.20;99.90;;;;;;5009168;28;20187;-64
2022/08/19 08:59:01;;;;;;;22.97;20.60;;;21.30;99.90;;;;;;5005984;28;20214;-61
2022/08/19 09:01:27;;;;;;;19.98;17.80;;;21.30;99.90;;;;;;5005156;28;20213;-66
2022/08/19 09:03:53;;;;;;;21.63;19.43;;;21.40;99.90;;;;;;5008427;28;20183;-62
2022/08/19 09:06:31;;;;;;;19.77;17.88;;;21.60;99.90;;;;;;5007189;28;20625;-58
2022/08/19 09:09:04;;;;;;;21.73;19.70;;;21.60;99.90;;;;;;5008617;28;20207;-59
2022/08/19 09:11:51;;;;;;;20.40;18.52;;;21.70;99.90;;;;;;4998515;28;20515;-57
2022/08/19 09:14:20;;;;;;;22.52;20.45;;;21.60;99.90;;;;;;5001438;28;20178;-58
2022/08/19 09:16:46;;;;;;;23.33;21.13;;;21.50;99.90;;;;;;5008738;28;20686;-57
2022/08/19 09:19:11;;;;;;;20.83;18.83;;;21.60;99.90;;;;;;5011270;28;20210;-57
2022/08/19 09:21:38;;;;;;;20.60;18.60;;;21.70;99.90;;;;;;5002950;28;20225;-58
2022/08/19 09:24:05;;;;;;;20.67;18.95;;;21.70;99.90;;;;;;5005513;28;20707;-59
2022/08/19 09:26:32;;;;;;;20.00;18.00;;;21.70;99.90;;;;;;5005748;28;21121;-60
2022/08/19 09:29:01;;;;;;;19.95;18.05;;;21.80;99.90;;;;;;5006890;28;20497;-57
2022/08/19 09:31:29;;;;;;;21.58;19.58;;;21.90;99.90;;;;;;5002209;28;20696;-57
2022/08/19 09:33:58;;;;;;;21.33;19.30;;;21.80;99.90;;;;;;5007507;28;20203;-58
2022/08/19 09:36:28;;;;;;;20.73;18.83;;;21.90;99.90;;;;;;5003202;28;20549;-58
2022/08/19 09:38:55;;;;;;;21.33;19.23;;;21.90;99.90;;;;;;5004096;28;20468;-59
2022/08/19 09:41:23;;;;;;;20.03;18.10;;;21.80;99.90;;;;;;5002126;28;20457;-58
2022/08/19 09:43:51;;;;;;;19.88;17.85;;;21.80;99.90;;;;;;5006535;28;20465;-59
2022/08/19 09:46:19;;;;;;;18.97;17.07;;;21.90;99.90;;;;;;5009811;28;20198;-58
2022/08/19 09:48:48;;;;;;;18.70;17.02;;;22.00;99.90;;;;;;5008906;28;20482;-58
2022/08/19 09:51:17;;;;;;;19.40;17.50;;;22.10;99.90;;;;;;5008050;28;20180;-57
2022/08/19 09:53:46;;;;;;;20.13;18.20;;;22.20;99.90;;;;;;5000251;28;20939;-60
2022/08/19 09:56:12;;;;;;;19.57;17.63;;;22.20;99.90;;;;;;5011521;28;20511;-60
2022/08/19 09:58:39;;;;;;;18.47;16.77;;;22.20;99.90;;;;;;5009829;28;20454;-61
2022/08/19 10:01:07;;;;;;;17.90;16.20;;;22.20;99.90;;;;;;4998694;28;20967;-60
2022/08/19 10:03:34;;;;;;;19.27;16.70;;;22.30;99.90;;;;;;4998567;28;20446;-58
2022/08/19 10:06:04;;;;;;;17.97;16.17;;;22.40;99.90;;;;;;4995940;28;20557;-59
2022/08/19 10:08:34;;;;;;;16.90;15.30;;;22.40;99.90;;;;;;5009693;28;21029;-59
2022/08/19 10:11:01;;;;;;;16.57;14.93;;;22.50;99.90;;;;;;5009576;28;20430;-59
2022/08/19 10:13:29;;;;;;;16.90;15.40;;;22.50;99.90;;;;;;5012977;28;20468;-58
2022/08/19 10:16:01;;;;;;;16.50;15.03;;;22.50;99.90;;;;;;5010231;28;20454;-60
2022/08/19 10:18:27;;;;;;;16.17;14.70;;;22.50;99.90;;;;;;5000571;28;20631;-60
2022/08/19 10:21:02;;;;;;;16.93;15.10;;;22.70;99.90;;;;;;5005986;28;21030;-60
2022/08/19 10:23:30;;;;;;;16.87;15.33;;;22.60;99.90;;;;;;5008229;28;20276;-60
2022/08/19 10:25:59;;;;;;;16.70;15.10;;;22.20;99.90;;;;;;5005945;28;20465;-60
2022/08/19 10:28:25;;;;;;;16.03;14.40;;;22.60;99.90;;;;;;5011144;28;20621;-61
2022/08/19 10:30:50;;;;;;;17.80;16.07;;;22.70;99.90;;;;;;5009261;28;20505;-61
2022/08/19 10:33:16;;;;;;;16.50;15.00;;;22.90;99.90;;;;;;5005892;28;20214;-60
2022/08/19 10:35:42;;;;;;;16.63;15.00;;;22.80;99.90;;;;;;5002876;28;20187;-59
2022/08/19 10:38:07;;;;;;;15.97;14.37;;;22.80;99.90;;;;;;5004353;28;20226;-61
2022/08/19 10:40:33;;;;;;;16.40;14.80;;;22.90;99.90;;;;;;5004271;28;20198;-60
2022/08/19 10:42:58;;;;;;;16.07;14.70;;;23.00;99.90;;;;;;5007696;28;20307;-59
2022/08/19 10:45:25;;;;;;;15.83;14.43;;;23.10;99.90;;;;;;5010661;28;20245;-60
2022/08/19 10:47:52;;;;;;;16.43;14.83;;;23.00;99.90;;;;;;5001527;28;20694;-60
2022/08/19 10:53:08;;;;;;;14.20;12.90;;;23.30;99.90;;;;;;4997859;28;20801;-61
2022/08/19 10:58:25;;;;;;;14.53;13.23;;;23.60;99.90;;;;;;5007075;28;20484;-64
2022/08/19 11:00:53;;;;;;;14.90;12.47;;;23.50;99.90;;;;;;5005485;28;20859;-64
2022/08/19 11:03:19;;;;;;;13.50;12.30;;;23.70;99.90;;;;;;5007171;28;20464;-67
2022/08/19 11:05:44;;;;;;;15.43;13.90;;;23.50;99.90;;;;;;5008446;28;20473;-66
2022/08/19 11:08:11;;;;;;;13.63;12.30;;;23.40;99.90;;;;;;5001925;28;20628;-70
2022/08/19 11:10:41;;;;;;;14.17;12.80;;;23.40;99.90;;;;;;5008368;28;20225;-67
2022/08/19 11:13:06;;;;;;;12.77;11.77;;;23.40;99.90;;;;;;5005710;28;20442;-65
2022/08/19 11:15:33;;;;;;;12.83;11.80;;;23.20;99.90;;;;;;5005871;28;20450;-69
2022/08/19 11:17:58;;;;;;;12.90;11.70;;;23.20;99.90;;;;;;5005761;28;20245;-66
2022/08/19 11:20:25;;;;;;;12.53;11.50;;;23.20;99.90;;;;;;5005970;28;20947;-65
2022/08/19 11:22:52;;;;;;;11.90;10.80;;;23.20;99.90;;;;;;5004289;28;20229;-65
2022/08/19 11:25:17;;;;;;;12.50;11.27;;;23.30;99.90;;;;;;5010898;28;21024;-65
2022/08/19 11:27:44;;;;;;;13.37;12.00;;;23.40;99.60;;;;;;5008738;28;20442;-65
2022/08/19 11:30:11;;;;;;;12.23;11.10;;;23.40;99.70;;;;;;5009984;28;20186;-66
2022/08/19 11:32:37;;;;;;;12.27;11.13;;;23.70;99.50;;;;;;5008016;28;20453;-65
2022/08/19 11:35:03;;;;;;;12.87;11.63;;;23.90;99.10;;;;;;5010300;28;20457;-68
2022/08/19 11:37:29;;;;;;;13.00;11.90;;;23.90;98.50;;;;;;5007097;28;20464;-65
2022/08/19 11:39:54;;;;;;;12.40;11.40;;;24.00;98.40;;;;;;5011095;28;20461;-65
2022/08/19 11:45:04;;;;;;;11.67;10.53;;;24.10;98.40;;;;;;5008807;28;20639;-66
2022/08/19 11:47:30;;;;;;;12.17;11.17;;;24.10;98.30;;;;;;5010747;28;20990;-66
2022/08/19 11:49:56;;;;;;;13.27;12.17;;;24.20;97.60;;;;;;5010596;28;20306;-68
2022/08/19 11:52:22;;;;;;;12.17;11.13;;;24.20;97.40;;;;;;5009777;28;20544;-69
2022/08/19 11:54:48;;;;;;;11.17;10.27;;;25.00;97.40;;;;;;5011845;28;20187;-71
2022/08/19 11:57:16;;;;;;;11.07;10.20;;;24.40;96.80;;;;;;5009091;28;20519;-69
2022/08/19 11:59:42;;;;;;;13.10;12.00;;;24.40;96.70;;;;;;5018456;28;20468;-69
2022/08/19 12:02:08;;;;;;;12.10;11.00;;;24.50;96.40;;;;;;5009923;28;21213;-69
2022/08/19 12:04:34;;;;;;;12.13;11.13;;;24.50;96.30;;;;;;5006360;28;20520;-68
2022/08/19 12:07:00;;;;;;;11.33;10.20;;;24.10;95.60;;;;;;5009566;28;20302;-69
2022/08/19 12:09:25;;;;;;;11.53;10.53;;;24.70;95.40;;;;;;5003981;28;20541;-70
2022/08/19 12:11:51;;;;;;;11.43;10.53;;;25.20;95.70;;;;;;5007938;28;20290;-70
2022/08/19 12:14:17;;;;;;;10.97;10.17;;;24.70;95.60;;;;;;5010751;28;20282;-71
2022/08/19 12:16:46;;;;;;;10.77;9.97;;;24.50;95.20;;;;;;5009836;28;20187;-69
2022/08/19 12:19:11;;;;;;;11.30;10.30;;;24.30;95.80;;;;;;5010755;28;20476;-70
2022/08/19 12:21:37;;;;;;;10.27;9.47;;;24.20;95.90;;;;;;5011236;28;20441;-70
2022/08/19 12:24:05;;;;;;;11.70;10.70;;;24.20;96.40;;;;;;5010873;28;20191;-69
2022/08/19 12:26:31;;;;;;;11.43;10.43;;;23.40;96.00;;;;;;5009523;28;20202;-69
2022/08/19 12:28:59;;;;;;;12.03;10.87;;;24.00;96.20;;;;;;5010669;28;20468;-70
2022/08/19 12:31:25;;;;;;;11.23;10.37;;;24.10;97.00;;;;;;5021093;28;20595;-70
2022/08/19 12:33:52;;;;;;;11.37;10.37;;;24.20;96.90;;;;;;5008570;28;20464;-70
2022/08/19 12:36:18;;;;;;;11.80;10.77;;;24.20;96.40;;;;;;5010990;28;20533;-70
2022/08/19 12:38:44;;;;;;;12.53;10.27;;;24.30;96.50;;;;;;5010336;28;20926;-70
2022/08/19 12:41:12;;;;;;;11.83;10.83;;;24.20;96.10;;;;;;5010334;28;20453;-70
2022/08/19 12:43:38;;;;;;;11.57;10.53;;;24.30;96.70;;;;;;5007323;28;20445;-69
2022/08/19 12:46:05;;;;;;;11.17;10.00;;;24.30;96.90;;;;;;4997006;28;20524;-70
2022/08/19 12:48:32;;;;;;;11.30;10.30;;;24.20;97.40;;;;;;5009714;28;20219;-64
2022/08/19 12:50:57;;;;;;;12.67;11.47;;;24.10;97.50;;;;;;5009918;28;20457;-68